createdAt,value
2022-11-08T00:01:07.054Z,12.57
2022-11-08T00:05:27.620Z,17.77
2022-11-08T00:09:48.108Z,14.27
2022-11-08T00:14:02.232Z,19.90
2022-11-08T00:18:05.735Z,21.03
2022-11-08T00:22:07.510Z,19.20
2022-11-08T00:26:09.586Z,18.17
2022-11-08T00:30:11.482Z,24.53
2022-11-08T00:34:13.225Z,19.80
2022-11-08T00:38:15.132Z,23.13
2022-11-08T00:42:16.975Z,20.47
2022-11-08T00:46:20.775Z,11.93
2022-11-08T00:50:22.432Z,17.63
2022-11-08T00:54:24.332Z,20.60
2022-11-08T00:58:27.852Z,28.67
2022-11-08T01:02:29.855Z,12.03
2022-11-08T01:06:31.836Z,14.13
2022-11-08T01:10:33.580Z,7.73
2022-11-08T01:14:35.256Z,6.70
2022-11-08T01:18:37.441Z,6.20
2022-11-08T01:22:39.133Z,5.00
2022-11-08T01:26:40.813Z,7.07
2022-11-08T01:30:44.171Z,7.80
2022-11-08T01:34:45.886Z,7.80
2022-11-08T01:38:48.170Z,14.57
2022-11-08T01:42:50.066Z,7.23
2022-11-08T01:46:51.734Z,18.37
2022-11-08T01:50:56.197Z,10.67
2022-11-08T01:55:06.903Z,15.20
2022-11-08T01:59:12.051Z,13.30
2022-11-08T02:03:17.956Z,11.60
2022-11-08T02:07:19.941Z,7.87
2022-11-08T02:11:21.770Z,10.77
2022-11-08T02:15:25.901Z,17.47
2022-11-08T02:19:44.669Z,15.20
2022-11-08T02:23:46.372Z,18.40
2022-11-08T02:27:48.105Z,10.57
2022-11-08T02:31:49.748Z,21.73
2022-11-08T02:35:56.073Z,19.50
2022-11-08T02:39:57.842Z,23.57
2022-11-08T02:43:59.575Z,17.53
2022-11-08T02:48:01.523Z,16.83
2022-11-08T02:52:04.029Z,22.40
2022-11-08T02:56:05.802Z,27.37
2022-11-08T03:00:08.205Z,18.63
2022-11-08T03:04:09.925Z,13.20
2022-11-08T03:08:11.701Z,16.90
2022-11-08T03:12:13.529Z,9.23
2022-11-08T03:16:15.325Z,8.50
2022-11-08T03:20:19.569Z,38.53
2022-11-08T03:24:21.328Z,26.27
2022-11-08T03:28:23.659Z,13.77
2022-11-08T03:32:26.664Z,12.67
2022-11-08T03:36:28.370Z,15.83
2022-11-08T03:40:30.158Z,10.00
2022-11-08T03:44:32.627Z,15.97
2022-11-08T03:48:34.285Z,31.40
2022-11-08T03:52:49.717Z,10.63
2022-11-08T03:56:51.378Z,20.57
2022-11-08T04:00:53.201Z,11.13
2022-11-08T04:04:54.988Z,6.97
2022-11-08T04:08:58.811Z,10.70
2022-11-08T04:13:20.317Z,12.27
2022-11-08T04:17:42.100Z,38.30
2022-11-08T04:21:49.267Z,58.10
2022-11-08T04:25:56.249Z,27.73
2022-11-08T04:29:57.946Z,15.00
2022-11-08T04:33:59.665Z,61.70
2022-11-08T04:38:02.418Z,30.17
2022-11-08T04:42:04.303Z,27.37
2022-11-08T04:46:08.739Z,35.50
2022-11-08T04:50:10.645Z,17.73
2022-11-08T04:54:12.412Z,11.87
2022-11-08T04:58:14.069Z,12.10
2022-11-08T05:02:15.937Z,23.97
2022-11-08T05:06:23.760Z,39.83
2022-11-08T05:10:25.448Z,35.33
2022-11-08T05:14:27.132Z,25.60
2022-11-08T05:18:29.997Z,24.97
2022-11-08T05:22:50.179Z,27.33
2022-11-08T05:26:51.824Z,10.87
2022-11-08T05:30:55.728Z,19.20
2022-11-08T05:34:57.495Z,10.90
2022-11-08T05:38:59.430Z,17.20
2022-11-08T05:43:01.207Z,14.10
2022-11-08T05:47:03.268Z,10.00
2022-11-08T05:51:05.224Z,14.80
2022-11-08T05:55:07.962Z,13.37
2022-11-08T05:59:09.754Z,16.83
2022-11-08T06:03:11.694Z,18.97
2022-11-08T06:07:13.815Z,27.60
2022-11-08T06:11:18.700Z,51.43
2022-11-08T06:15:20.729Z,18.03
2022-11-08T06:19:22.570Z,14.03
2022-11-08T06:23:24.441Z,16.03
2022-11-08T06:27:26.454Z,15.83
2022-11-08T06:31:28.121Z,15.50
2022-11-08T06:35:29.814Z,38.03
2022-11-08T06:39:31.675Z,35.53
2022-11-08T06:43:34.078Z,23.93
2022-11-08T06:47:35.741Z,34.83
2022-11-08T06:51:37.417Z,27.63
2022-11-08T06:55:39.428Z,16.17
2022-11-08T06:59:41.286Z,38.03
2022-11-08T07:03:42.971Z,27.50
2022-11-08T07:07:44.992Z,12.67
2022-11-08T07:11:46.719Z,19.27
2022-11-08T07:15:48.681Z,16.63
2022-11-08T07:19:50.836Z,20.00
2022-11-08T07:23:52.496Z,19.77
2022-11-08T07:28:02.995Z,19.20
2022-11-08T07:32:05.146Z,15.57
2022-11-08T07:36:07.057Z,40.90
2022-11-08T07:40:10.006Z,17.50
2022-11-08T07:44:11.744Z,13.50
2022-11-08T07:48:13.984Z,33.87
2022-11-08T07:52:16.048Z,22.53
2022-11-08T07:56:17.941Z,13.37
2022-11-08T08:00:19.705Z,16.10
2022-11-08T08:04:21.397Z,27.37
2022-11-08T08:08:23.201Z,24.03
2022-11-08T08:12:24.904Z,31.37
2022-11-08T08:16:26.566Z,41.67
2022-11-08T08:20:29.621Z,37.40
2022-11-08T08:24:31.382Z,92.30
2022-11-08T08:28:33.277Z,25.97
2022-11-08T08:32:35.038Z,22.33
2022-11-08T08:36:36.775Z,12.23
2022-11-08T08:40:38.679Z,26.20
2022-11-08T08:44:40.329Z,28.33
2022-11-08T08:48:42.059Z,18.33
2022-11-08T08:52:43.749Z,19.00
2022-11-08T08:56:45.448Z,17.00
2022-11-08T09:05:10.933Z,16.97
2022-11-08T09:09:12.712Z,22.47
2022-11-08T09:13:14.431Z,19.67
2022-11-08T09:17:16.135Z,17.13
2022-11-08T09:21:17.857Z,15.30
2022-11-08T09:25:19.718Z,16.80
2022-11-08T09:29:21.550Z,14.47
2022-11-08T09:33:23.314Z,14.17
2022-11-08T09:37:25.612Z,14.23
2022-11-08T09:41:36.108Z,11.80
2022-11-08T09:45:46.388Z,13.33
2022-11-08T09:50:18.956Z,12.27
2022-11-08T09:54:35.094Z,14.37
2022-11-08T09:59:02.438Z,15.33
2022-11-08T10:03:04.288Z,18.80
2022-11-08T10:07:23.776Z,21.23
2022-11-08T10:11:47.415Z,16.80
2022-11-08T10:15:55.100Z,15.97
2022-11-08T10:20:06.866Z,17.60
2022-11-08T10:24:39.572Z,19.63
2022-11-08T10:28:50.068Z,14.17
2022-11-08T10:32:55.114Z,15.60
2022-11-08T10:37:03.523Z,15.23
2022-11-08T10:41:28.437Z,16.50
2022-11-08T10:45:30.113Z,20.97
2022-11-08T10:49:33.173Z,12.90
2022-11-08T10:53:43.407Z,19.50
2022-11-08T10:57:45.150Z,15.13
2022-11-08T11:01:50.786Z,13.03
2022-11-08T11:06:18.345Z,15.47
2022-11-08T11:10:29.357Z,13.90
2022-11-08T11:14:31.035Z,14.23
2022-11-08T11:18:34.515Z,19.07
2022-11-08T11:22:36.236Z,18.30
2022-11-08T11:26:48.032Z,20.20
2022-11-08T11:31:00.951Z,18.03
2022-11-08T11:35:05.359Z,14.67
2022-11-08T11:39:23.416Z,17.57
2022-11-08T11:43:45.521Z,15.20
2022-11-08T11:47:53.491Z,14.67
2022-11-08T11:51:56.600Z,16.57
2022-11-08T11:56:07.434Z,12.67
2022-11-08T12:00:12.974Z,11.57
2022-11-08T12:04:47.972Z,13.97
2022-11-08T12:09:23.498Z,14.63
2022-11-08T12:14:01.504Z,16.07
2022-11-08T12:18:21.682Z,18.20
2022-11-08T12:22:59.965Z,22.07
2022-11-08T12:27:29.010Z,23.43
2022-11-08T12:31:35.265Z,27.43
2022-11-08T12:35:51.960Z,29.97
2022-11-08T12:40:01.242Z,21.33
2022-11-08T12:44:23.207Z,22.80
2022-11-08T12:48:39.176Z,22.60
2022-11-08T12:53:17.798Z,18.60
2022-11-08T12:57:22.174Z,16.57
2022-11-08T13:01:24.175Z,15.43
2022-11-08T13:05:33.631Z,17.70
2022-11-08T13:09:58.248Z,12.40
2022-11-08T13:14:00.680Z,13.20
2022-11-08T13:18:09.752Z,16.05
2022-11-08T13:22:31.575Z,11.17
2022-11-08T13:26:41.943Z,14.67
2022-11-08T13:30:44.031Z,17.03
2022-11-08T13:34:59.430Z,14.43
2022-11-08T13:39:03.871Z,15.13
2022-11-08T13:43:24.156Z,12.70
2022-11-08T13:47:34.917Z,16.17
2022-11-08T13:51:41.964Z,11.67
2022-11-08T13:55:43.612Z,11.60
2022-11-08T13:59:45.658Z,15.07
2022-11-08T14:03:47.401Z,10.30
2022-11-08T14:08:14.838Z,10.40
2022-11-08T14:12:43.806Z,12.03
2022-11-08T14:17:01.177Z,9.93
2022-11-08T14:21:04.976Z,13.73
2022-11-08T14:25:14.655Z,12.00
2022-11-08T14:29:18.955Z,10.07
2022-11-08T14:33:22.030Z,12.43
2022-11-08T14:37:27.216Z,15.17
2022-11-08T14:41:30.532Z,15.10
2022-11-08T14:45:32.398Z,10.70
2022-11-08T14:49:36.556Z,12.07
2022-11-08T14:53:50.579Z,13.90
2022-11-08T14:57:52.341Z,16.43
2022-11-08T15:01:54.068Z,19.23
2022-11-08T15:05:59.423Z,15.93
2022-11-08T15:10:10.091Z,15.30
2022-11-08T15:14:19.076Z,16.87
2022-11-08T15:18:38.560Z,17.33
2022-11-08T15:22:40.480Z,22.40
2022-11-08T15:27:05.869Z,20.02
2022-11-08T15:31:13.266Z,19.17
2022-11-08T15:35:22.979Z,18.93
2022-11-08T15:39:32.282Z,20.93
2022-11-08T15:43:38.868Z,24.03
2022-11-08T15:47:46.221Z,22.37
2022-11-08T15:51:49.840Z,20.70
2022-11-08T15:55:56.885Z,18.77
2022-11-08T15:59:58.835Z,21.63
2022-11-08T16:04:00.484Z,20.13
2022-11-08T16:08:02.197Z,22.77
2022-11-08T16:12:04.304Z,28.20
2022-11-08T16:16:15.187Z,45.33
2022-11-08T16:20:27.824Z,29.33
2022-11-08T16:24:29.517Z,28.53
2022-11-08T16:28:36.226Z,20.33
2022-11-08T16:32:37.941Z,26.47
2022-11-08T16:36:39.665Z,31.63
2022-11-08T16:40:41.951Z,28.80
2022-11-08T16:44:44.344Z,30.03
2022-11-08T16:48:49.306Z,25.70
2022-11-08T16:52:51.868Z,31.70
2022-11-08T16:57:13.674Z,22.33
2022-11-08T17:01:27.007Z,25.80
2022-11-08T17:05:28.756Z,25.40
2022-11-08T17:09:30.594Z,20.47
2022-11-08T17:13:37.505Z,18.77
2022-11-08T17:17:43.141Z,23.47
2022-11-08T17:21:45.859Z,23.67
2022-11-08T17:25:47.757Z,19.93
2022-11-08T17:29:49.411Z,19.07
2022-11-08T17:33:51.238Z,18.13
2022-11-08T17:37:53.723Z,35.37
2022-11-08T17:41:55.470Z,33.50
2022-11-08T17:45:58.396Z,36.43
2022-11-08T17:50:00.091Z,25.97
2022-11-08T17:54:04.570Z,22.87
2022-11-08T17:58:06.450Z,20.57
2022-11-08T18:02:09.277Z,9.37
2022-11-08T18:06:14.412Z,13.97
2022-11-08T18:10:16.529Z,10.73
2022-11-08T18:14:27.067Z,11.33
2022-11-08T18:18:30.064Z,11.67
2022-11-08T18:22:32.874Z,19.87
2022-11-08T18:26:34.753Z,19.20
2022-11-08T18:30:36.637Z,16.90
2022-11-08T18:34:38.444Z,20.63
2022-11-08T18:38:41.975Z,32.90
2022-11-08T18:42:43.655Z,36.43
2022-11-08T18:46:45.406Z,31.80
2022-11-08T18:50:50.821Z,35.13
2022-11-08T18:54:52.522Z,27.13
2022-11-08T18:58:54.378Z,23.77
2022-11-08T19:02:56.022Z,20.90
2022-11-08T19:06:57.759Z,19.33
2022-11-08T19:11:03.105Z,20.73
2022-11-08T19:15:05.087Z,22.13
2022-11-08T19:19:06.832Z,19.83
2022-11-08T19:23:08.553Z,20.17
2022-11-08T19:27:10.456Z,22.60
2022-11-08T19:31:14.027Z,31.20
2022-11-08T19:35:24.628Z,34.67
2022-11-08T19:39:26.452Z,22.23
2022-11-08T19:43:28.185Z,33.43
2022-11-08T19:47:29.863Z,26.97
2022-11-08T19:51:36.844Z,40.67
2022-11-08T19:55:38.674Z,41.40
2022-11-08T19:59:40.319Z,42.63
2022-11-08T20:03:42.256Z,48.90
2022-11-08T20:07:49.593Z,33.33
2022-11-08T20:11:51.504Z,40.03
2022-11-08T20:15:54.544Z,38.17
2022-11-08T20:19:56.291Z,45.43
2022-11-08T20:23:58.408Z,48.03
2022-11-08T20:28:02.715Z,44.43
2022-11-08T20:32:04.653Z,31.80
2022-11-08T20:36:11.638Z,22.33
2022-11-08T20:40:14.293Z,24.17
2022-11-08T20:44:16.474Z,30.03
2022-11-08T20:48:18.370Z,69.20
2022-11-08T20:52:22.507Z,76.03
2022-11-08T20:56:25.339Z,74.73
2022-11-08T21:00:52.105Z,45.80
2022-11-08T21:04:48.991Z,49.30
2022-11-08T21:09:01.826Z,39.17
2022-11-08T21:13:05.055Z,46.67
2022-11-08T21:17:21.488Z,33.00
2022-11-08T21:21:29.525Z,17.40
2022-11-08T21:25:32.262Z,11.77
2022-11-08T21:29:34.396Z,32.03
2022-11-08T21:33:36.460Z,33.30
2022-11-08T21:37:38.162Z,45.33
2022-11-08T21:41:40.028Z,56.97
2022-11-08T21:45:41.979Z,57.97
2022-11-08T21:49:43.688Z,54.27
2022-11-08T21:53:54.023Z,47.27
2022-11-08T21:57:56.601Z,50.87
2022-11-08T22:01:58.580Z,48.37
2022-11-08T22:06:00.356Z,47.53
2022-11-08T22:10:02.097Z,45.83
2022-11-08T22:14:04.088Z,41.33
2022-11-08T22:18:15.366Z,41.60
2022-11-08T22:22:19.260Z,40.43
2022-11-08T22:26:21.001Z,43.23
2022-11-08T22:30:22.684Z,43.77
2022-11-08T22:34:24.525Z,131.63
2022-11-08T22:38:27.657Z,121.07
2022-11-08T22:42:29.540Z,82.60
2022-11-08T22:46:31.433Z,54.27
2022-11-08T22:50:33.533Z,39.80
2022-11-08T22:54:35.316Z,35.03
2022-11-08T22:58:42.280Z,29.80
2022-11-08T23:02:46.082Z,27.73
2022-11-08T23:06:47.814Z,33.03
2022-11-08T23:11:08.379Z,29.33
2022-11-08T23:15:29.268Z,25.97
2022-11-08T23:19:49.424Z,22.10
2022-11-08T23:24:09.652Z,25.33
2022-11-08T23:28:32.845Z,20.87
2022-11-08T23:32:35.090Z,25.53
2022-11-08T23:36:36.833Z,26.07
2022-11-08T23:40:57.165Z,26.03
2022-11-08T23:44:58.844Z,30.00
2022-11-08T23:49:01.907Z,20.63
2022-11-08T23:53:03.678Z,26.87
2022-11-08T23:57:05.910Z,24.33
